MHG weather

Mannheim-City Airport
Mannheim, Baden-W├╝rttemberg, Germany

Public forecast

Using degrees Celsius for public forecast. Weather courtesy of forecast.io.

METAR (pilot weather report)

Retrieved 2019/09/16 15:20 UTC (0 seconds ago):

EDFM 161520Z 06003KT CAVOK 24/10 Q1018

TAF (pilot weather forecast)

Forecast is more than 12 hours old.

Retrieved 2012/03/06 06:30 UTC (8 years ago):

TAF EDFM 060519Z 0606/0621 15004KT 9999 FEW040